createdAt,value
2018-12-20T00:01:01.989Z,65.40
2018-12-20T00:03:43.575Z,67.57
2018-12-20T00:06:26.037Z,58.33
2018-12-20T00:09:10.554Z,61.67
2018-12-20T00:11:50.125Z,62.97
2018-12-20T00:14:31.688Z,61.90
2018-12-20T00:17:12.988Z,60.60
2018-12-20T00:19:51.560Z,64.60
2018-12-20T00:22:30.419Z,69.00
2018-12-20T00:25:14.738Z,62.60
2018-12-20T00:27:53.290Z,65.07
2018-12-20T00:30:36.481Z,75.93
2018-12-20T00:33:16.054Z,70.20
2018-12-20T00:35:54.973Z,66.43
2018-12-20T00:38:37.356Z,67.10
2018-12-20T00:41:17.941Z,65.07
2018-12-20T00:43:56.961Z,61.60
2018-12-20T00:46:37.944Z,61.37
2018-12-20T00:49:18.511Z,74.43
2018-12-20T00:51:58.010Z,68.87
2018-12-20T00:54:42.005Z,65.30
2018-12-20T00:57:22.951Z,66.03
2018-12-20T01:00:03.785Z,66.67
2018-12-20T01:02:43.374Z,64.63
2018-12-20T01:05:26.536Z,69.97
2018-12-20T01:08:06.650Z,61.93
2018-12-20T01:10:47.273Z,60.77
2018-12-20T01:13:26.241Z,69.03
2018-12-20T01:16:07.633Z,71.03
2018-12-20T01:18:45.036Z,61.43
2018-12-20T01:21:28.005Z,59.67
2018-12-20T01:24:07.028Z,66.03
2018-12-20T01:26:51.321Z,72.80
2018-12-20T01:29:28.759Z,58.27
2018-12-20T01:32:11.798Z,58.33
2018-12-20T01:34:50.585Z,68.80
2018-12-20T01:37:29.858Z,65.93
2018-12-20T01:40:11.209Z,69.80
2018-12-20T01:42:52.199Z,63.43
2018-12-20T01:45:29.895Z,59.80
2018-12-20T01:48:11.073Z,64.03
2018-12-20T01:50:48.807Z,69.47
2018-12-20T01:53:29.024Z,69.53
2018-12-20T01:56:08.592Z,63.13
2018-12-20T01:58:47.652Z,71.23
2018-12-20T02:01:27.555Z,72.87
2018-12-20T02:04:05.387Z,70.37
2018-12-20T02:06:43.224Z,68.17
2018-12-20T02:09:24.745Z,76.10
2018-12-20T02:12:06.318Z,71.50
2018-12-20T02:14:44.525Z,74.57
2018-12-20T02:17:22.551Z,68.13
2018-12-20T02:20:03.509Z,72.63
2018-12-20T02:22:44.634Z,69.43
2018-12-20T02:25:21.068Z,76.43
2018-12-20T02:28:02.341Z,75.33
2018-12-20T02:30:41.666Z,77.43
2018-12-20T02:33:20.394Z,77.20
2018-12-20T02:36:00.085Z,80.77
2018-12-20T02:38:40.344Z,72.57
2018-12-20T02:41:21.907Z,73.97
2018-12-20T02:44:00.056Z,82.27
2018-12-20T02:46:39.370Z,71.33
2018-12-20T02:49:18.418Z,73.57
2018-12-20T02:52:00.627Z,75.27
2018-12-20T02:54:42.164Z,70.00
2018-12-20T02:57:21.024Z,75.50
2018-12-20T03:00:00.296Z,78.13
2018-12-20T03:02:41.473Z,86.93
2018-12-20T03:05:19.951Z,73.27
2018-12-20T03:08:01.615Z,83.70
2018-12-20T03:10:43.088Z,80.43
2018-12-20T03:13:24.019Z,78.90
2018-12-20T03:16:08.989Z,84.30
2018-12-20T03:18:47.528Z,85.33
2018-12-20T03:21:26.031Z,81.93
2018-12-20T03:24:03.890Z,82.77
2018-12-20T03:26:46.634Z,78.97
2018-12-20T03:29:24.614Z,83.43
2018-12-20T03:32:06.760Z,78.73
2018-12-20T03:34:45.193Z,86.60
2018-12-20T03:37:28.250Z,76.13
2018-12-20T03:40:10.956Z,78.43
2018-12-20T03:42:49.566Z,79.83
2018-12-20T03:45:29.169Z,79.00
2018-12-20T03:48:09.335Z,86.43
2018-12-20T03:50:49.808Z,77.43
2018-12-20T03:53:34.251Z,91.97
2018-12-20T03:56:10.354Z,78.50
2018-12-20T03:58:54.057Z,70.83
2018-12-20T04:01:36.399Z,84.30
2018-12-20T04:04:17.377Z,81.20
2018-12-20T04:06:58.621Z,84.77
2018-12-20T04:09:38.559Z,88.73
2018-12-20T04:12:21.550Z,79.77
2018-12-20T04:14:59.353Z,88.40
2018-12-20T04:17:39.924Z,82.87
2018-12-20T04:20:20.197Z,80.33
2018-12-20T04:22:59.447Z,88.17
2018-12-20T04:25:40.995Z,77.57
2018-12-20T04:28:23.566Z,84.23
2018-12-20T04:31:02.510Z,88.03
2018-12-20T04:33:41.762Z,87.63
2018-12-20T04:36:22.425Z,88.37
2018-12-20T04:39:01.141Z,84.43
2018-12-20T04:41:41.976Z,84.17
2018-12-20T04:44:22.566Z,94.07
2018-12-20T04:47:03.148Z,89.47
2018-12-20T04:49:46.107Z,98.33
2018-12-20T04:52:28.307Z,88.50
2018-12-20T04:55:04.529Z,86.33
2018-12-20T04:57:40.487Z,94.27
2018-12-20T05:00:24.182Z,93.07
2018-12-20T05:02:58.929Z,82.23
2018-12-20T05:05:34.977Z,102.73
2018-12-20T05:08:14.702Z,92.07
2018-12-20T05:10:53.876Z,92.23
2018-12-20T05:13:34.868Z,83.43
2018-12-20T05:16:13.235Z,87.10
2018-12-20T05:18:48.991Z,96.90
2018-12-20T05:21:30.864Z,90.00
2018-12-20T05:24:14.264Z,90.17
2018-12-20T05:26:50.279Z,87.73
2018-12-20T05:29:27.681Z,89.43
2018-12-20T05:32:07.408Z,87.40
2018-12-20T05:34:46.025Z,91.83
2018-12-20T05:37:25.083Z,90.27
2018-12-20T05:40:11.865Z,86.53
2018-12-20T05:42:54.576Z,87.03
2018-12-20T05:45:36.065Z,88.80
2018-12-20T05:48:17.413Z,87.83
2018-12-20T05:51:01.747Z,78.60
2018-12-20T05:53:40.935Z,79.53
2018-12-20T05:56:17.106Z,86.50
2018-12-20T05:58:55.475Z,85.30
2018-12-20T06:01:36.324Z,84.53
2018-12-20T06:04:16.148Z,86.37
2018-12-20T06:06:55.874Z,91.03
2018-12-20T06:09:31.890Z,85.57
2018-12-20T06:12:06.896Z,83.13
2018-12-20T06:14:43.430Z,91.80
2018-12-20T06:17:21.978Z,85.03
2018-12-20T06:20:03.289Z,86.87
2018-12-20T06:22:43.407Z,90.33
2018-12-20T06:25:27.461Z,99.40
2018-12-20T06:28:07.577Z,85.63
2018-12-20T06:30:48.473Z,92.93
2018-12-20T06:33:28.914Z,91.27
2018-12-20T06:36:11.746Z,94.77
2018-12-20T06:38:52.308Z,94.60
2018-12-20T06:41:32.642Z,100.03
2018-12-20T06:44:12.034Z,101.43
2018-12-20T06:46:55.621Z,84.80
2018-12-20T06:49:35.750Z,97.63
2018-12-20T06:52:18.053Z,99.83
2018-12-20T06:54:57.897Z,107.67
2018-12-20T06:57:39.394Z,93.77
2018-12-20T07:00:18.606Z,92.67
2018-12-20T07:02:56.621Z,114.40
2018-12-20T07:05:40.707Z,103.67
2018-12-20T07:08:20.329Z,97.03
2018-12-20T07:11:01.232Z,100.77
2018-12-20T07:13:41.832Z,98.07
2018-12-20T07:16:29.009Z,93.43
2018-12-20T07:19:02.490Z,105.07
2018-12-20T07:21:44.012Z,103.83
2018-12-20T07:24:22.196Z,110.57
2018-12-20T07:26:59.184Z,107.73
2018-12-20T07:29:37.967Z,107.20
2018-12-20T07:32:25.084Z,107.03
2018-12-20T07:35:03.662Z,108.00
2018-12-20T07:37:42.251Z,104.23
2018-12-20T07:40:25.518Z,100.87
2018-12-20T07:43:07.909Z,115.63
2018-12-20T07:45:48.823Z,106.57
2018-12-20T07:48:32.013Z,100.70
2018-12-20T07:51:11.131Z,102.00
2018-12-20T07:53:52.069Z,101.60
2018-12-20T07:56:32.862Z,100.33
2018-12-20T07:59:13.287Z,96.60
2018-12-20T08:01:54.443Z,94.00
2018-12-20T08:04:35.151Z,97.70
2018-12-20T08:07:17.498Z,91.47
2018-12-20T08:09:55.740Z,85.80
2018-12-20T08:12:32.610Z,101.67
2018-12-20T08:15:13.457Z,85.93
2018-12-20T08:17:55.672Z,93.30
2018-12-20T08:20:36.830Z,85.33
2018-12-20T08:23:14.928Z,93.90
2018-12-20T08:25:58.409Z,92.40
2018-12-20T08:28:38.379Z,80.17
2018-12-20T08:31:21.219Z,78.60
2018-12-20T08:34:02.263Z,87.57
2018-12-20T08:36:43.903Z,78.40
2018-12-20T08:39:25.064Z,82.07
2018-12-20T08:42:07.308Z,81.83
2018-12-20T08:44:44.831Z,78.17
2018-12-20T08:47:22.727Z,79.00
2018-12-20T08:50:02.089Z,81.77
2018-12-20T08:52:44.017Z,79.27
2018-12-20T08:55:23.711Z,76.73
2018-12-20T08:58:04.551Z,74.67
2018-12-20T09:00:44.743Z,72.60
2018-12-20T09:03:24.669Z,80.90
2018-12-20T09:06:03.575Z,74.67
2018-12-20T09:08:45.489Z,76.33
2018-12-20T09:11:25.605Z,72.83
2018-12-20T09:14:04.339Z,70.13
2018-12-20T09:16:43.739Z,74.37
2018-12-20T09:19:23.653Z,69.23
2018-12-20T09:22:06.397Z,74.43
2018-12-20T09:24:44.311Z,76.57
2018-12-20T09:27:25.380Z,70.73
2018-12-20T09:30:06.219Z,69.80
2018-12-20T09:32:46.659Z,71.23
2018-12-20T09:35:28.522Z,71.53
2018-12-20T09:38:08.074Z,72.63
2018-12-20T09:40:49.406Z,64.90
2018-12-20T09:43:29.536Z,59.37
2018-12-20T09:46:11.386Z,66.10
2018-12-20T09:48:53.329Z,67.30
2018-12-20T09:51:36.574Z,62.07
2018-12-20T09:54:18.715Z,64.27
2018-12-20T09:56:58.450Z,64.23
2018-12-20T09:59:39.369Z,60.63
2018-12-20T10:02:19.182Z,64.07
2018-12-20T10:05:00.322Z,65.90
2018-12-20T10:07:45.869Z,54.20
2018-12-20T10:10:25.177Z,61.37
2018-12-20T10:13:06.531Z,65.07
2018-12-20T10:15:48.439Z,57.00
2018-12-20T10:18:27.524Z,61.20
2018-12-20T10:21:07.769Z,55.83
2018-12-20T10:23:45.313Z,57.17
2018-12-20T10:26:27.653Z,54.60
2018-12-20T10:29:09.565Z,53.47
2018-12-20T10:31:47.972Z,55.10
2018-12-20T10:34:28.262Z,52.00
2018-12-20T10:37:09.589Z,53.47
2018-12-20T10:39:47.971Z,58.60
2018-12-20T10:42:27.197Z,51.30
2018-12-20T10:45:05.137Z,51.47
2018-12-20T10:47:44.355Z,47.60
2018-12-20T10:50:26.970Z,49.93
2018-12-20T10:53:08.761Z,48.73
2018-12-20T10:55:46.984Z,48.33
2018-12-20T10:58:25.557Z,45.47
2018-12-20T11:01:08.512Z,51.93
2018-12-20T11:03:51.498Z,51.57
2018-12-20T11:06:34.440Z,47.27
2018-12-20T11:09:20.735Z,54.13
2018-12-20T11:12:05.249Z,53.87
2018-12-20T11:14:44.295Z,50.57
2018-12-20T11:17:23.053Z,51.90
2018-12-20T11:20:02.547Z,50.47
2018-12-20T11:22:40.208Z,46.47
2018-12-20T11:25:20.599Z,50.17
2018-12-20T11:27:59.618Z,50.53
2018-12-20T11:30:36.859Z,44.03
2018-12-20T11:33:17.658Z,50.50
2018-12-20T11:35:56.518Z,53.07
2018-12-20T11:38:36.459Z,51.90
2018-12-20T11:41:17.128Z,54.03
2018-12-20T11:43:58.938Z,49.77
2018-12-20T11:46:39.720Z,46.87
2018-12-20T11:49:20.263Z,47.77
2018-12-20T11:51:59.478Z,52.97
2018-12-20T11:54:40.201Z,51.10
2018-12-20T11:57:21.369Z,50.27
2018-12-20T12:00:00.707Z,49.00
2018-12-20T12:02:39.026Z,43.93
2018-12-20T12:05:15.704Z,50.53
2018-12-20T12:07:59.331Z,51.47
2018-12-20T12:10:41.652Z,51.73
2018-12-20T12:13:20.288Z,51.47
2018-12-20T12:16:02.070Z,49.33
2018-12-20T12:18:45.019Z,56.17
2018-12-20T12:21:25.888Z,48.67
2018-12-20T12:24:07.126Z,50.87
2018-12-20T12:26:47.041Z,46.27
2018-12-20T12:29:27.634Z,54.43
2018-12-20T12:32:06.499Z,47.30
2018-12-20T12:34:44.856Z,46.30
2018-12-20T12:37:24.883Z,49.00
2018-12-20T12:40:03.097Z,46.53
2018-12-20T12:42:42.713Z,45.67
2018-12-20T12:45:19.032Z,45.93
2018-12-20T12:48:03.956Z,46.23
2018-12-20T12:50:42.788Z,46.13
2018-12-20T12:53:23.637Z,44.33
2018-12-20T12:56:02.893Z,41.57
2018-12-20T12:58:41.911Z,48.43
2018-12-20T13:01:18.850Z,46.57
2018-12-20T13:04:00.775Z,45.27
2018-12-20T13:06:40.397Z,43.93
2018-12-20T13:09:20.731Z,40.83
2018-12-20T13:12:02.217Z,45.93
2018-12-20T13:14:43.067Z,40.20
2018-12-20T13:17:21.744Z,41.47
2018-12-20T13:20:01.965Z,42.23
2018-12-20T13:22:45.085Z,42.53
2018-12-20T13:25:24.842Z,38.20
2018-12-20T13:28:04.625Z,38.23
2018-12-20T13:30:48.576Z,44.33
2018-12-20T13:33:28.191Z,34.73
2018-12-20T13:36:07.659Z,36.53
2018-12-20T13:38:47.125Z,39.43
2018-12-20T13:41:27.589Z,39.00
2018-12-20T13:44:09.130Z,40.13
2018-12-20T13:46:49.405Z,38.47
2018-12-20T13:49:28.778Z,36.87
2018-12-20T13:52:07.531Z,37.27
2018-12-20T13:54:51.318Z,40.03
2018-12-20T13:57:33.016Z,46.47
2018-12-20T14:00:16.929Z,38.67
2018-12-20T14:02:56.317Z,45.80
2018-12-20T14:05:34.582Z,44.73
2018-12-20T14:08:18.501Z,41.90
2018-12-20T14:11:00.911Z,37.63
2018-12-20T14:13:39.752Z,47.03
2018-12-20T14:16:21.939Z,47.23
2018-12-20T14:19:02.111Z,48.30
2018-12-20T14:21:42.263Z,51.03
2018-12-20T14:24:22.143Z,50.53
2018-12-20T14:26:59.999Z,46.93
2018-12-20T14:29:41.503Z,52.23
2018-12-20T14:32:23.192Z,49.47
2018-12-20T14:35:00.133Z,47.77
2018-12-20T14:37:42.707Z,46.37
2018-12-20T14:40:24.339Z,49.00
2018-12-20T14:43:05.732Z,49.33
2018-12-20T14:45:45.996Z,48.97
2018-12-20T14:48:39.022Z,46.87
2018-12-20T14:51:13.253Z,48.03
2018-12-20T14:53:54.341Z,51.93
2018-12-20T14:56:32.237Z,46.90
2018-12-20T14:59:14.109Z,52.73
2018-12-20T15:01:55.821Z,46.50
2018-12-20T15:04:35.235Z,48.97
2018-12-20T15:07:16.475Z,51.63
2018-12-20T15:09:56.246Z,52.37
2018-12-20T15:12:34.805Z,48.80
2018-12-20T15:15:12.246Z,56.87
2018-12-20T15:17:54.455Z,50.47
2018-12-20T15:20:40.409Z,58.20
2018-12-20T15:23:16.543Z,50.23
2018-12-20T15:25:53.304Z,48.20
2018-12-20T15:28:34.853Z,51.77
2018-12-20T15:31:15.334Z,45.57
2018-12-20T15:33:54.661Z,50.83
2018-12-20T15:36:37.949Z,45.73
2018-12-20T15:39:16.515Z,45.13
2018-12-20T15:41:57.179Z,44.47
2018-12-20T15:44:34.797Z,44.27
2018-12-20T15:47:07.250Z,49.67
2018-12-20T15:49:48.622Z,46.93
2018-12-20T15:52:29.174Z,48.13
2018-12-20T15:55:12.061Z,49.73
2018-12-20T15:57:50.098Z,44.60
2018-12-20T16:00:30.694Z,48.20
2018-12-20T16:03:14.061Z,47.47
2018-12-20T16:05:54.899Z,45.77
2018-12-20T16:08:35.485Z,46.80
2018-12-20T16:11:19.843Z,47.03
2018-12-20T16:14:02.871Z,46.20
2018-12-20T16:19:12.877Z,44.77
2018-12-20T16:21:52.915Z,45.83
2018-12-20T16:24:30.658Z,48.93
2018-12-20T16:27:12.349Z,39.87
2018-12-20T16:29:50.982Z,47.93
2018-12-20T16:32:31.536Z,59.20
2018-12-20T16:35:15.693Z,43.03
2018-12-20T16:37:55.076Z,45.83
2018-12-20T16:40:34.084Z,49.17
2018-12-20T16:43:18.379Z,40.37
2018-12-20T16:45:56.161Z,42.40
2018-12-20T16:48:36.150Z,35.90
2018-12-20T16:51:09.775Z,40.77
2018-12-20T16:53:43.309Z,41.70
2018-12-20T16:56:17.521Z,40.80
2018-12-20T16:58:49.909Z,44.30
2018-12-20T17:01:23.754Z,46.47
2018-12-20T17:03:56.164Z,40.43
2018-12-20T17:06:29.407Z,42.77
2018-12-20T17:09:04.215Z,43.90
2018-12-20T17:11:37.336Z,39.90
2018-12-20T17:14:09.724Z,42.90
2018-12-20T17:16:46.896Z,39.73
2018-12-20T17:19:22.213Z,46.33
2018-12-20T17:21:58.299Z,50.13
2018-12-20T17:24:35.248Z,44.20
2018-12-20T17:27:12.396Z,62.63
2018-12-20T17:29:47.615Z,53.00
2018-12-20T17:32:24.950Z,52.50
2018-12-20T17:35:03.803Z,45.03
2018-12-20T17:37:39.892Z,52.97
2018-12-20T17:40:19.697Z,58.97
2018-12-20T17:42:56.315Z,55.00
2018-12-20T17:45:33.762Z,62.87
2018-12-20T17:48:08.864Z,54.80
2018-12-20T17:50:47.087Z,58.67
2018-12-20T17:53:22.289Z,52.67
2018-12-20T17:55:59.250Z,62.53
2018-12-20T17:58:36.156Z,59.63
2018-12-20T18:01:09.965Z,48.43
2018-12-20T18:03:44.276Z,58.80
2018-12-20T18:06:18.317Z,59.93
2018-12-20T18:08:51.832Z,60.97
2018-12-20T18:11:25.292Z,63.33
2018-12-20T18:13:59.190Z,66.97
2018-12-20T18:16:33.390Z,51.30
2018-12-20T18:19:07.163Z,47.73
2018-12-20T18:21:40.766Z,52.80
2018-12-20T18:24:19.259Z,50.60
2018-12-20T18:26:52.176Z,57.57
2018-12-20T18:29:25.576Z,56.83
2018-12-20T18:31:59.490Z,62.00
2018-12-20T18:34:33.048Z,51.73
2018-12-20T18:37:05.857Z,60.17
2018-12-20T18:39:38.962Z,62.20
2018-12-20T18:42:11.918Z,53.20
2018-12-20T18:44:45.479Z,46.50
2018-12-20T18:47:18.233Z,62.53
2018-12-20T18:49:51.451Z,44.27
2018-12-20T18:52:24.267Z,48.33
2018-12-20T18:54:57.418Z,53.03
2018-12-20T18:57:30.180Z,46.47
2018-12-20T19:00:03.973Z,46.83
2018-12-20T19:02:37.180Z,46.83
2018-12-20T19:05:10.831Z,51.07
2018-12-20T19:07:44.210Z,49.23
2018-12-20T19:10:17.346Z,48.77
2018-12-20T19:12:51.446Z,50.17
2018-12-20T19:15:24.996Z,47.40
2018-12-20T19:17:58.621Z,40.60
2018-12-20T19:20:31.600Z,44.37
2018-12-20T19:23:05.226Z,45.83
2018-12-20T19:25:38.321Z,50.30
2018-12-20T19:28:11.842Z,39.67
2018-12-20T19:30:45.032Z,39.60
2018-12-20T19:33:17.806Z,41.13
2018-12-20T19:35:50.782Z,38.93
2018-12-20T19:38:24.391Z,46.83
2018-12-20T19:40:57.161Z,49.70
2018-12-20T19:43:30.299Z,38.77
2018-12-20T19:46:03.672Z,38.83
2018-12-20T19:48:36.550Z,36.43
2018-12-20T19:51:10.495Z,40.37
2018-12-20T19:53:43.514Z,40.40
2018-12-20T19:56:16.432Z,47.30
2018-12-20T19:58:49.078Z,44.83
2018-12-20T20:01:22.426Z,43.73
2018-12-20T20:03:56.204Z,43.83
2018-12-20T20:06:29.213Z,51.77
2018-12-20T20:09:02.375Z,54.70
2018-12-20T20:11:35.592Z,47.37
2018-12-20T20:14:08.921Z,51.03
2018-12-20T20:16:50.450Z,52.13
2018-12-20T20:19:18.011Z,56.23
2018-12-20T20:21:51.572Z,56.93
2018-12-20T20:24:24.095Z,54.10
2018-12-20T20:26:58.296Z,51.47
2018-12-20T20:29:31.513Z,52.33
2018-12-20T20:32:04.642Z,60.07
2018-12-20T20:34:37.841Z,45.63
2018-12-20T20:37:11.343Z,50.97
2018-12-20T20:39:44.747Z,43.53
2018-12-20T20:42:17.544Z,53.00
2018-12-20T20:44:50.407Z,44.20
2018-12-20T20:47:23.504Z,38.30
2018-12-20T20:49:56.314Z,40.60
2018-12-20T20:52:29.468Z,40.10
2018-12-20T20:55:02.375Z,43.30
2018-12-20T20:57:35.549Z,36.20
2018-12-20T21:00:11.755Z,37.70
2018-12-20T21:02:45.012Z,34.63
2018-12-20T21:05:18.146Z,32.20
2018-12-20T21:07:58.567Z,30.67
2018-12-20T21:10:34.705Z,35.53
2018-12-20T21:13:15.153Z,44.70
2018-12-20T21:15:54.693Z,38.23
2018-12-20T21:18:34.960Z,40.10
2018-12-20T21:21:15.153Z,30.90
2018-12-20T21:23:54.601Z,29.37
2018-12-20T21:26:33.953Z,32.13
2018-12-20T21:29:15.676Z,24.40
2018-12-20T21:31:49.475Z,28.93
2018-12-20T21:34:24.654Z,25.43
2018-12-20T21:37:03.943Z,24.37
2018-12-20T21:39:45.292Z,28.63
2018-12-20T21:42:26.058Z,28.17
2018-12-20T21:45:04.967Z,33.37
2018-12-20T21:47:43.528Z,30.83
2018-12-20T21:50:23.276Z,27.30
2018-12-20T21:53:03.288Z,28.00
2018-12-20T21:55:37.471Z,24.77
2018-12-20T21:58:16.322Z,24.80
2018-12-20T22:00:52.416Z,23.63
2018-12-20T22:03:27.835Z,22.87
2018-12-20T22:06:05.640Z,22.80
2018-12-20T22:08:44.688Z,25.07
2018-12-20T22:11:21.098Z,20.33
2018-12-20T22:13:59.696Z,25.80
2018-12-20T22:16:33.199Z,22.73
2018-12-20T22:19:13.048Z,25.37
2018-12-20T22:21:53.471Z,28.40
2018-12-20T22:24:27.533Z,20.63
2018-12-20T22:27:04.757Z,22.90
2018-12-20T22:29:46.490Z,24.07
2018-12-20T22:32:24.251Z,23.87
2018-12-20T22:35:04.846Z,20.17
2018-12-20T22:37:48.570Z,19.37
2018-12-20T22:40:24.834Z,22.13
2018-12-20T22:43:02.924Z,24.63
2018-12-20T22:45:40.832Z,22.17
2018-12-20T22:48:22.008Z,24.63
2018-12-20T22:51:04.691Z,21.97
2018-12-20T22:53:45.689Z,22.73
2018-12-20T22:56:23.314Z,23.60
2018-12-20T22:59:01.495Z,22.53
2018-12-20T23:01:41.344Z,19.20
2018-12-20T23:04:22.290Z,19.63
2018-12-20T23:06:55.991Z,23.67
2018-12-20T23:09:34.440Z,25.53
2018-12-20T23:12:18.138Z,20.00
2018-12-20T23:14:54.634Z,21.73
2018-12-20T23:17:35.889Z,22.13
2018-12-20T23:20:17.120Z,25.30
2018-12-20T23:23:01.532Z,23.23
2018-12-20T23:25:41.098Z,25.73
2018-12-20T23:28:20.802Z,26.70
2018-12-20T23:31:00.432Z,22.63
2018-12-20T23:33:41.784Z,28.90
2018-12-20T23:36:19.131Z,25.57
2018-12-20T23:38:59.492Z,26.20
2018-12-20T23:41:41.968Z,23.43
2018-12-20T23:44:22.086Z,24.93
2018-12-20T23:47:02.770Z,24.90
2018-12-20T23:49:43.567Z,19.43
2018-12-20T23:52:25.928Z,24.40
2018-12-20T23:55:04.655Z,24.43
2018-12-20T23:57:45.915Z,19.20
